createdAt,value
2018-04-08T00:01:29.466Z,11.69
2018-04-08T00:03:57.398Z,11.66
2018-04-08T00:06:25.315Z,11.51
2018-04-08T00:08:53.280Z,11.57
2018-04-08T00:11:21.230Z,11.57
2018-04-08T00:13:49.164Z,11.46
2018-04-08T00:16:17.094Z,11.46
2018-04-08T00:18:45.032Z,11.49
2018-04-08T00:21:12.960Z,11.48
2018-04-08T00:23:40.880Z,11.53
2018-04-08T00:26:08.801Z,11.48
2018-04-08T00:28:36.730Z,11.43
2018-04-08T00:31:04.660Z,11.44
2018-04-08T00:33:33.068Z,11.26
2018-04-08T00:36:00.991Z,11.18
2018-04-08T00:38:28.935Z,11.33
2018-04-08T00:40:56.848Z,11.27
2018-04-08T00:43:24.840Z,11.25
2018-04-08T00:45:52.945Z,11.19
2018-04-08T00:48:20.877Z,11.18
2018-04-08T00:50:48.809Z,11.13
2018-04-08T00:53:16.753Z,11.15
2018-04-08T00:55:44.714Z,11.23
2018-04-08T00:58:12.635Z,11.26
2018-04-08T01:00:40.553Z,11.16
2018-04-08T01:03:08.489Z,11.11
2018-04-08T01:05:36.439Z,11.22
2018-04-08T01:08:04.380Z,11.13
2018-04-08T01:10:32.314Z,11.03
2018-04-08T01:13:00.233Z,11.03
2018-04-08T01:15:28.172Z,11.04
2018-04-08T01:17:56.129Z,11.00
2018-04-08T01:20:24.054Z,11.14
2018-04-08T01:22:51.978Z,11.14
2018-04-08T01:25:19.893Z,11.09
2018-04-08T01:27:47.833Z,11.20
2018-04-08T01:30:15.765Z,11.34
2018-04-08T01:32:43.694Z,11.19
2018-04-08T01:35:11.618Z,11.32
2018-04-08T01:37:39.539Z,11.25
2018-04-08T01:40:07.459Z,11.25
2018-04-08T01:42:35.367Z,11.29
2018-04-08T01:45:03.276Z,11.29
2018-04-08T01:47:31.232Z,11.33
2018-04-08T01:49:59.173Z,11.29
2018-04-08T01:52:27.121Z,11.37
2018-04-08T01:54:55.025Z,11.26
2018-04-08T01:57:22.967Z,11.16
2018-04-08T01:59:50.922Z,11.11
2018-04-08T02:02:18.832Z,11.07
2018-04-08T02:04:46.781Z,11.01
2018-04-08T02:07:14.704Z,11.19
2018-04-08T02:09:42.635Z,11.08
2018-04-08T02:12:10.573Z,11.12
2018-04-08T02:14:38.488Z,11.18
2018-04-08T02:17:06.425Z,11.00
2018-04-08T02:19:34.347Z,10.98
2018-04-08T02:22:02.259Z,11.05
2018-04-08T02:24:30.188Z,10.87
2018-04-08T02:26:58.109Z,11.05
2018-04-08T02:29:26.053Z,10.84
2018-04-08T02:31:53.976Z,10.74
2018-04-08T02:34:21.901Z,10.80
2018-04-08T02:36:50.620Z,10.74
2018-04-08T02:39:18.582Z,10.74
2018-04-08T02:41:46.496Z,10.72
2018-04-08T02:44:14.418Z,10.73
2018-04-08T02:46:42.342Z,10.70
2018-04-08T02:49:10.258Z,10.69
2018-04-08T02:51:38.175Z,10.71
2018-04-08T02:54:06.137Z,10.64
2018-04-08T02:56:34.055Z,10.66
2018-04-08T02:59:01.984Z,10.58
2018-04-08T03:01:29.901Z,10.77
2018-04-08T03:03:57.871Z,10.65
2018-04-08T03:06:25.777Z,10.58
2018-04-08T03:08:54.499Z,10.52
2018-04-08T03:11:22.438Z,10.50
2018-04-08T03:13:50.363Z,10.57
2018-04-08T03:16:18.308Z,10.53
2018-04-08T03:18:46.224Z,10.53
2018-04-08T03:21:14.157Z,10.52
2018-04-08T03:23:42.076Z,10.52
2018-04-08T03:26:10.418Z,10.53
2018-04-08T03:28:38.391Z,10.59
2018-04-08T03:31:06.314Z,10.69
2018-04-08T03:33:34.226Z,10.49
2018-04-08T03:36:02.432Z,10.52
2018-04-08T03:38:30.341Z,10.46
2018-04-08T03:40:58.288Z,10.38
2018-04-08T03:43:26.272Z,10.34
2018-04-08T03:45:54.204Z,10.24
2018-04-08T03:48:22.121Z,10.37
2018-04-08T03:50:50.047Z,10.25
2018-04-08T03:53:17.985Z,10.14
2018-04-08T03:55:45.899Z,10.29
2018-04-08T03:58:13.817Z,10.21
2018-04-08T04:00:41.741Z,10.09
2018-04-08T04:03:09.662Z,10.04
2018-04-08T04:05:37.583Z,9.96
2018-04-08T04:08:05.522Z,10.04
2018-04-08T04:10:33.453Z,10.03
2018-04-08T04:13:01.378Z,9.98
2018-04-08T04:15:29.282Z,9.93
2018-04-08T04:17:57.196Z,9.90
2018-04-08T04:20:36.954Z,9.84
2018-04-08T04:26:15.788Z,9.85
2018-04-08T04:28:43.705Z,9.68
2018-04-08T04:31:11.629Z,9.75
2018-04-08T04:33:39.563Z,9.80
2018-04-08T04:36:07.701Z,9.66
2018-04-08T04:38:35.608Z,9.71
2018-04-08T04:41:03.541Z,9.65
2018-04-08T04:43:32.133Z,9.68
2018-04-08T04:46:00.054Z,9.54
2018-04-08T04:48:27.975Z,9.50
2018-04-08T04:50:55.909Z,9.50
2018-04-08T04:53:23.886Z,9.56
2018-04-08T04:55:51.784Z,9.47
2018-04-08T04:58:19.725Z,9.48
2018-04-08T05:00:47.620Z,9.63
2018-04-08T05:03:15.556Z,9.65
2018-04-08T05:05:43.493Z,9.62
2018-04-08T05:08:11.412Z,9.66
2018-04-08T05:10:39.333Z,9.69
2018-04-08T05:13:07.264Z,9.80
2018-04-08T05:15:35.170Z,9.69
2018-04-08T05:18:03.115Z,9.72
2018-04-08T05:20:31.034Z,9.81
2018-04-08T05:22:58.941Z,9.76
2018-04-08T05:25:26.879Z,9.81
2018-04-08T05:27:54.781Z,9.81
2018-04-08T05:30:22.709Z,9.81
2018-04-08T05:32:50.619Z,9.85
2018-04-08T05:35:18.520Z,9.91
2018-04-08T05:37:46.440Z,9.97
2018-04-08T05:40:14.372Z,10.01
2018-04-08T05:42:42.300Z,10.03
2018-04-08T05:45:10.220Z,10.11
2018-04-08T05:47:38.160Z,10.19
2018-04-08T05:50:06.074Z,10.39
2018-04-08T05:52:34.020Z,10.35
2018-04-08T05:55:01.949Z,10.40
2018-04-08T05:57:29.889Z,10.60
2018-04-08T05:59:57.812Z,10.63
2018-04-08T06:02:25.723Z,10.79
2018-04-08T06:04:53.700Z,10.94
2018-04-08T06:07:21.591Z,11.24
2018-04-08T06:09:49.536Z,11.26
2018-04-08T06:12:17.448Z,11.54
2018-04-08T06:14:45.932Z,11.62
2018-04-08T06:17:14.211Z,11.75
2018-04-08T06:19:42.249Z,11.99
2018-04-08T06:22:10.171Z,12.40
2018-04-08T06:24:38.097Z,12.25
2018-04-08T06:27:06.038Z,12.44
2018-04-08T06:29:33.955Z,12.80
2018-04-08T06:32:01.877Z,12.94
2018-04-08T06:34:29.814Z,12.88
2018-04-08T06:36:57.733Z,13.25
2018-04-08T06:39:25.669Z,13.22
2018-04-08T06:41:53.576Z,13.45
2018-04-08T06:44:21.508Z,13.52
2018-04-08T06:46:49.417Z,13.56
2018-04-08T06:49:17.333Z,13.76
2018-04-08T06:51:46.149Z,13.85
2018-04-08T06:54:14.102Z,13.98
2018-04-08T06:56:42.013Z,14.15
2018-04-08T06:59:09.942Z,14.22
2018-04-08T07:01:37.845Z,14.39
2018-04-08T07:04:05.837Z,14.72
2018-04-08T07:06:34.157Z,14.47
2018-04-08T07:09:02.084Z,14.86
2018-04-08T07:11:30.002Z,14.86
2018-04-08T07:13:58.445Z,14.94
2018-04-08T07:16:26.365Z,15.21
2018-04-08T07:18:54.283Z,15.31
2018-04-08T07:21:22.213Z,15.32
2018-04-08T07:23:50.547Z,15.37
2018-04-08T07:26:18.490Z,15.40
2018-04-08T07:28:46.390Z,15.72
2018-04-08T07:31:14.299Z,15.98
2018-04-08T07:33:42.215Z,16.02
2018-04-08T07:36:10.137Z,16.15
2018-04-08T07:38:38.069Z,16.07
2018-04-08T07:41:05.970Z,16.37
2018-04-08T07:43:33.898Z,16.41
2018-04-08T07:46:01.835Z,16.55
2018-04-08T07:48:29.747Z,16.60
2018-04-08T07:50:57.679Z,16.58
2018-04-08T07:53:25.586Z,16.93
2018-04-08T07:55:53.506Z,16.94
2018-04-08T07:58:21.436Z,16.80
2018-04-08T08:00:49.359Z,17.23
2018-04-08T08:03:17.281Z,17.46
2018-04-08T08:05:45.194Z,17.28
2018-04-08T08:08:13.134Z,17.37
2018-04-08T08:10:41.046Z,17.41
2018-04-08T08:13:09.745Z,17.63
2018-04-08T08:15:37.684Z,17.77
2018-04-08T08:18:05.616Z,17.97
2018-04-08T08:20:33.653Z,18.21
2018-04-08T08:23:01.706Z,18.40
2018-04-08T08:25:29.550Z,18.38
2018-04-08T08:27:57.496Z,18.53
2018-04-08T08:30:25.402Z,18.86
2018-04-08T08:32:53.340Z,18.97
2018-04-08T08:35:21.240Z,19.48
2018-04-08T08:37:49.181Z,19.43
2018-04-08T08:40:17.540Z,19.29
2018-04-08T08:42:45.483Z,18.95
2018-04-08T08:45:13.479Z,19.25
2018-04-08T08:47:41.423Z,19.62
2018-04-08T08:50:10.054Z,19.85
2018-04-08T08:52:37.973Z,20.01
2018-04-08T08:55:06.411Z,20.16
2018-04-08T08:57:34.366Z,20.11
2018-04-08T09:00:02.293Z,20.83
2018-04-08T09:02:30.215Z,20.68
2018-04-08T09:04:58.131Z,20.90
2018-04-08T09:07:26.050Z,20.57
2018-04-08T09:09:53.985Z,20.87
2018-04-08T09:12:21.915Z,21.03
2018-04-08T09:14:49.929Z,20.94
2018-04-08T09:17:17.895Z,21.19
2018-04-08T09:22:54.823Z,21.52
2018-04-08T09:25:31.279Z,21.35
2018-04-08T09:27:59.197Z,21.23
2018-04-08T09:30:27.131Z,21.44
2018-04-08T09:32:55.033Z,21.69
2018-04-08T09:35:22.969Z,21.84
2018-04-08T09:37:50.895Z,22.03
2018-04-08T09:40:18.801Z,22.21
2018-04-08T09:42:46.825Z,21.72
2018-04-08T09:45:14.770Z,21.88
2018-04-08T09:47:42.686Z,21.46
2018-04-08T09:50:10.598Z,21.61
2018-04-08T09:52:38.544Z,21.94
2018-04-08T09:55:06.457Z,22.33
2018-04-08T09:57:46.083Z,21.79
2018-04-08T10:00:19.665Z,21.62
2018-04-08T10:05:44.827Z,21.88
2018-04-08T10:08:12.760Z,22.58
2018-04-08T10:10:40.661Z,22.58
2018-04-08T10:13:08.616Z,23.08
2018-04-08T10:15:36.555Z,23.12
2018-04-08T10:18:04.468Z,23.31
2018-04-08T10:20:32.396Z,23.70
2018-04-08T10:23:00.309Z,23.59
2018-04-08T10:25:28.252Z,23.35
2018-04-08T10:27:56.176Z,23.01
2018-04-08T10:30:24.073Z,23.37
2018-04-08T10:32:51.984Z,23.31
2018-04-08T10:35:20.468Z,23.47
2018-04-08T10:37:48.395Z,23.79
2018-04-08T10:40:16.310Z,23.80
2018-04-08T10:42:44.234Z,23.72
2018-04-08T10:45:12.781Z,23.24
2018-04-08T10:47:40.718Z,23.75
2018-04-08T10:50:08.640Z,24.05
2018-04-08T10:52:36.540Z,24.05
2018-04-08T10:55:04.459Z,23.88
2018-04-08T10:57:32.384Z,22.97
2018-04-08T11:00:00.336Z,23.59
2018-04-08T11:02:28.395Z,23.94
2018-04-08T11:04:56.305Z,24.16
2018-04-08T11:07:24.228Z,24.49
2018-04-08T11:09:52.148Z,24.36
2018-04-08T11:12:20.063Z,24.70
2018-04-08T11:14:47.987Z,24.25
2018-04-08T11:17:15.934Z,24.16
2018-04-08T11:19:43.862Z,24.56
2018-04-08T11:22:11.795Z,24.23
2018-04-08T11:24:39.714Z,24.25
2018-04-08T11:27:07.670Z,24.38
2018-04-08T11:29:35.621Z,23.94
2018-04-08T11:32:03.550Z,24.29
2018-04-08T11:34:31.524Z,23.60
2018-04-08T11:36:59.448Z,23.43
2018-04-08T11:39:27.357Z,23.80
2018-04-08T11:41:55.327Z,23.90
2018-04-08T11:44:23.267Z,23.58
2018-04-08T11:46:51.198Z,24.53
2018-04-08T11:49:19.110Z,24.49
2018-04-08T11:51:47.026Z,24.49
2018-04-08T11:54:14.948Z,24.25
2018-04-08T11:56:42.899Z,23.69
2018-04-08T11:59:10.830Z,24.23
2018-04-08T12:01:39.477Z,24.38
2018-04-08T12:04:07.413Z,23.81
2018-04-08T12:06:35.316Z,23.73
2018-04-08T12:09:03.228Z,23.77
2018-04-08T12:11:31.863Z,24.24
2018-04-08T12:13:59.781Z,24.26
2018-04-08T12:16:27.699Z,24.42
2018-04-08T12:18:55.645Z,24.80
2018-04-08T12:21:23.626Z,24.53
2018-04-08T12:23:51.542Z,24.38
2018-04-08T12:26:35.199Z,24.21
2018-04-08T12:29:03.183Z,24.03
2018-04-08T12:31:31.131Z,24.13
2018-04-08T12:33:59.091Z,23.92
2018-04-08T12:36:27.009Z,24.23
2018-04-08T12:38:54.944Z,24.44
2018-04-08T12:41:22.860Z,24.69
2018-04-08T12:43:50.780Z,24.80
2018-04-08T12:46:18.698Z,24.65
2018-04-08T12:48:46.614Z,24.17
2018-04-08T12:51:14.534Z,24.57
2018-04-08T12:53:42.457Z,24.42
2018-04-08T12:56:10.401Z,24.49
2018-04-08T12:58:38.333Z,24.86
2018-04-08T13:01:06.237Z,24.85
2018-04-08T13:03:34.169Z,25.21
2018-04-08T13:06:02.072Z,25.36
2018-04-08T13:08:29.996Z,24.98
2018-04-08T13:10:57.917Z,25.00
2018-04-08T13:13:25.837Z,24.91
2018-04-08T13:15:53.753Z,24.87
2018-04-08T13:18:21.664Z,25.00
2018-04-08T13:20:49.589Z,24.86
2018-04-08T13:23:17.497Z,25.09
2018-04-08T13:25:45.445Z,25.30
2018-04-08T13:28:13.385Z,25.17
2018-04-08T13:30:41.300Z,25.14
2018-04-08T13:33:09.210Z,24.78
2018-04-08T13:35:37.169Z,24.84
2018-04-08T13:38:05.069Z,24.55
2018-04-08T13:40:32.976Z,24.41
2018-04-08T13:43:01.078Z,24.40
2018-04-08T13:45:29.000Z,24.54
2018-04-08T13:47:56.925Z,24.65
2018-04-08T13:50:24.850Z,24.82
2018-04-08T13:52:52.754Z,24.79
2018-04-08T13:55:20.676Z,24.46
2018-04-08T13:57:48.612Z,24.20
2018-04-08T14:00:16.551Z,24.03
2018-04-08T14:02:44.451Z,24.01
2018-04-08T14:05:12.353Z,24.01
2018-04-08T14:07:40.290Z,24.13
2018-04-08T14:10:08.224Z,24.00
2018-04-08T14:12:36.142Z,24.18
2018-04-08T14:15:04.065Z,23.95
2018-04-08T14:17:31.976Z,23.88
2018-04-08T14:19:59.897Z,23.67
2018-04-08T14:22:27.811Z,23.91
2018-04-08T14:24:55.725Z,23.84
2018-04-08T14:27:23.640Z,23.61
2018-04-08T14:29:51.544Z,23.76
2018-04-08T14:32:19.477Z,23.55
2018-04-08T14:34:47.375Z,23.36
2018-04-08T14:37:15.272Z,23.40
2018-04-08T14:39:43.184Z,23.64
2018-04-08T14:42:11.101Z,23.58
2018-04-08T14:44:39.012Z,23.61
2018-04-08T14:47:07.710Z,23.65
2018-04-08T14:49:35.613Z,23.64
2018-04-08T14:52:03.554Z,23.52
2018-04-08T14:54:31.446Z,23.42
2018-04-08T14:56:59.365Z,23.51
2018-04-08T14:59:27.264Z,23.45
2018-04-08T15:01:55.171Z,23.15
2018-04-08T15:04:23.099Z,23.07
2018-04-08T15:06:51.069Z,22.92
2018-04-08T15:09:18.925Z,22.90
2018-04-08T15:11:46.830Z,22.95
2018-04-08T15:14:14.755Z,23.14
2018-04-08T15:16:42.670Z,22.97
2018-04-08T15:19:10.581Z,22.86
2018-04-08T15:21:38.475Z,22.98
2018-04-08T15:24:07.313Z,22.83
2018-04-08T15:26:35.234Z,22.67
2018-04-08T15:29:03.164Z,22.39
2018-04-08T15:31:31.088Z,22.40
2018-04-08T15:33:59.009Z,22.25
2018-04-08T15:36:27.347Z,22.10
2018-04-08T15:38:55.846Z,21.83
2018-04-08T15:41:23.741Z,21.91
2018-04-08T15:43:51.651Z,22.02
2018-04-08T15:46:19.572Z,21.96
2018-04-08T15:48:47.484Z,21.90
2018-04-08T15:51:15.369Z,21.92
2018-04-08T15:53:43.282Z,21.80
2018-04-08T15:56:11.197Z,21.83
2018-04-08T15:58:39.111Z,21.84
2018-04-08T16:01:07.004Z,21.73
2018-04-08T16:03:34.902Z,21.58
2018-04-08T16:06:02.881Z,21.61
2018-04-08T16:08:30.787Z,21.47
2018-04-08T16:10:58.687Z,21.39
2018-04-08T16:13:26.608Z,21.14
2018-04-08T16:15:54.524Z,21.23
2018-04-08T16:18:22.440Z,21.15
2018-04-08T16:20:50.523Z,21.06
2018-04-08T16:23:18.428Z,20.92
2018-04-08T16:25:46.348Z,20.87
2018-04-08T16:28:14.257Z,20.94
2018-04-08T16:30:42.151Z,21.00
2018-04-08T16:33:10.073Z,20.88
2018-04-08T16:35:37.978Z,20.80
2018-04-08T16:38:05.899Z,20.78
2018-04-08T16:40:33.805Z,20.78
2018-04-08T16:43:01.717Z,20.58
2018-04-08T16:45:29.612Z,20.59
2018-04-08T16:47:57.530Z,20.44
2018-04-08T16:50:25.445Z,20.63
2018-04-08T16:52:53.382Z,20.45
2018-04-08T16:55:22.462Z,20.40
2018-04-08T16:57:50.361Z,20.19
2018-04-08T17:00:18.610Z,20.24
2018-04-08T17:02:46.580Z,20.25
2018-04-08T17:05:14.468Z,20.28
2018-04-08T17:07:42.376Z,20.10
2018-04-08T17:10:10.307Z,19.96
2018-04-08T17:12:38.227Z,19.92
2018-04-08T17:15:06.122Z,19.98
2018-04-08T17:17:34.049Z,19.87
2018-04-08T17:20:02.006Z,19.85
2018-04-08T17:22:29.934Z,19.96
2018-04-08T17:24:57.856Z,19.74
2018-04-08T17:27:25.737Z,19.67
2018-04-08T17:29:53.648Z,19.68
2018-04-08T17:32:21.573Z,19.72
2018-04-08T17:34:49.485Z,19.63
2018-04-08T17:37:17.403Z,19.51
2018-04-08T17:39:45.718Z,19.41
2018-04-08T17:42:13.634Z,19.23
2018-04-08T17:44:41.558Z,19.22
2018-04-08T17:47:09.464Z,19.08
2018-04-08T17:49:37.390Z,19.08
2018-04-08T17:52:05.314Z,19.06
2018-04-08T17:54:33.233Z,19.08
2018-04-08T17:57:01.178Z,18.94
2018-04-08T17:59:29.072Z,18.84
2018-04-08T18:01:57.016Z,18.82
2018-04-08T18:04:24.937Z,18.67
2018-04-08T18:06:53.671Z,18.67
2018-04-08T18:09:21.591Z,18.56
2018-04-08T18:11:49.515Z,18.56
2018-04-08T18:14:17.408Z,18.49
2018-04-08T18:16:45.344Z,18.43
2018-04-08T18:19:13.270Z,18.32
2018-04-08T18:21:41.174Z,18.49
2018-04-08T18:24:09.217Z,18.40
2018-04-08T18:26:37.134Z,18.38
2018-04-08T18:29:05.067Z,18.17
2018-04-08T18:31:32.979Z,18.27
2018-04-08T18:34:00.902Z,18.13
2018-04-08T18:36:29.111Z,18.10
2018-04-08T18:38:57.095Z,17.99
2018-04-08T18:41:25.072Z,17.92
2018-04-08T18:43:53.322Z,17.81
2018-04-08T18:46:22.038Z,17.73
2018-04-08T18:48:49.961Z,17.73
2018-04-08T18:51:18.075Z,17.62
2018-04-08T18:53:46.177Z,17.56
2018-04-08T18:56:14.077Z,17.38
2018-04-08T18:58:42.033Z,17.43
2018-04-08T19:01:09.948Z,17.36
2018-04-08T19:03:37.894Z,17.26
2018-04-08T19:06:06.448Z,17.21
2018-04-08T19:08:34.449Z,17.19
2018-04-08T19:11:03.715Z,17.16
2018-04-08T19:13:33.746Z,17.11
2018-04-08T19:16:01.676Z,17.01
2018-04-08T19:18:29.678Z,16.91
2018-04-08T19:20:58.862Z,16.88
2018-04-08T19:23:26.805Z,16.84
2018-04-08T19:25:54.752Z,16.85
2018-04-08T19:28:24.027Z,16.79
2018-04-08T19:30:52.080Z,16.78
2018-04-08T19:33:19.997Z,16.67
2018-04-08T19:35:47.917Z,16.76
2018-04-08T19:38:15.849Z,16.62
2018-04-08T19:40:44.163Z,16.55
2018-04-08T19:43:12.086Z,16.54
2018-04-08T19:45:40.092Z,16.49
2018-04-08T19:48:08.242Z,16.45
2018-04-08T19:50:36.182Z,16.50
2018-04-08T19:53:04.136Z,16.50
2018-04-08T19:55:32.155Z,16.50
2018-04-08T19:58:00.118Z,16.27
2018-04-08T20:00:28.081Z,16.25
2018-04-08T20:02:56.017Z,16.21
2018-04-08T20:05:24.963Z,16.29
2018-04-08T20:07:52.905Z,16.11
2018-04-08T20:10:20.977Z,16.04
2018-04-08T20:12:48.890Z,16.03
2018-04-08T20:15:16.831Z,16.01
2018-04-08T20:17:44.743Z,16.03
2018-04-08T20:20:12.662Z,16.12
2018-04-08T20:22:40.593Z,16.00
2018-04-08T20:25:08.519Z,15.99
2018-04-08T20:27:36.472Z,15.86
2018-04-08T20:30:04.376Z,15.74
2018-04-08T20:32:32.413Z,15.78
2018-04-08T20:35:00.367Z,15.71
2018-04-08T20:37:28.272Z,15.65
2018-04-08T20:39:56.200Z,15.61
2018-04-08T20:42:24.101Z,15.59
2018-04-08T20:44:52.092Z,15.59
2018-04-08T20:47:19.994Z,15.57
2018-04-08T20:49:47.990Z,15.54
2018-04-08T20:52:15.945Z,15.47
2018-04-08T20:54:43.865Z,15.48
2018-04-08T20:57:11.826Z,15.42
2018-04-08T20:59:39.738Z,15.31
2018-04-08T21:02:07.643Z,15.32
2018-04-08T21:04:35.603Z,15.28
2018-04-08T21:07:03.549Z,15.26
2018-04-08T21:09:32.252Z,15.22
2018-04-08T21:12:00.201Z,15.19
2018-04-08T21:14:28.152Z,15.22
2018-04-08T21:16:56.088Z,15.23
2018-04-08T21:19:24.068Z,15.13
2018-04-08T21:21:51.978Z,15.10
2018-04-08T21:24:19.893Z,15.15
2018-04-08T21:26:47.820Z,15.08
2018-04-08T21:29:16.266Z,15.06
2018-04-08T21:31:44.212Z,15.07
2018-04-08T21:34:12.484Z,14.99
2018-04-08T21:36:41.981Z,14.95
2018-04-08T21:39:09.906Z,14.87
2018-04-08T21:41:37.828Z,14.86
2018-04-08T21:44:05.742Z,14.81
2018-04-08T21:46:33.677Z,14.74
2018-04-08T21:49:01.618Z,14.68
2018-04-08T21:51:29.545Z,14.58
2018-04-08T21:53:57.455Z,14.53
2018-04-08T21:56:26.060Z,14.59
2018-04-08T21:58:53.972Z,14.51
2018-04-08T22:01:22.668Z,14.48
2018-04-08T22:03:52.075Z,14.50
2018-04-08T22:06:20.864Z,14.42
2018-04-08T22:08:48.805Z,14.47
2018-04-08T22:11:16.768Z,14.35
2018-04-08T22:13:44.679Z,14.21
2018-04-08T22:16:12.685Z,14.21
2018-04-08T22:18:40.576Z,14.24
2018-04-08T22:21:08.512Z,14.20
2018-04-08T22:23:36.462Z,14.11
2018-04-08T22:26:04.793Z,14.00
2018-04-08T22:28:32.735Z,14.03
2018-04-08T22:31:00.641Z,14.03
2018-04-08T22:33:28.576Z,13.96
2018-04-08T22:35:56.533Z,13.88
2018-04-08T22:38:24.431Z,13.91
2018-04-08T22:40:52.361Z,13.93
2018-04-08T22:43:20.256Z,13.91
2018-04-08T22:45:48.202Z,13.89
2018-04-08T22:48:16.117Z,13.84
2018-04-08T22:50:44.043Z,13.83
2018-04-08T22:53:11.968Z,13.85
2018-04-08T22:55:39.889Z,13.76
2018-04-08T22:58:07.836Z,13.62
2018-04-08T23:00:35.738Z,13.49
2018-04-08T23:03:03.665Z,13.51
2018-04-08T23:05:31.601Z,13.53
2018-04-08T23:07:59.905Z,13.53
2018-04-08T23:10:27.829Z,13.53
2018-04-08T23:12:55.748Z,13.56
2018-04-08T23:15:23.684Z,13.51
2018-04-08T23:17:51.712Z,13.44
2018-04-08T23:20:19.633Z,13.22
2018-04-08T23:22:47.544Z,13.19
2018-04-08T23:25:15.466Z,13.20
2018-04-08T23:27:43.391Z,13.19
2018-04-08T23:30:12.057Z,13.15
2018-04-08T23:32:39.982Z,13.17
2018-04-08T23:35:07.907Z,13.08
2018-04-08T23:37:35.805Z,13.12
2018-04-08T23:40:03.745Z,12.96
2018-04-08T23:42:31.663Z,13.04
2018-04-08T23:44:59.592Z,13.09
2018-04-08T23:47:27.501Z,13.03
2018-04-08T23:49:55.439Z,12.63
2018-04-08T23:52:23.359Z,12.66
2018-04-08T23:54:51.264Z,12.62
2018-04-08T23:57:19.197Z,12.58
2018-04-08T23:59:47.134Z,12.58
